createdAt,value
2023-02-11T00:03:57.385Z,101930.13
2023-02-11T00:08:09.811Z,101927.50
2023-02-11T00:12:22.972Z,101924.53
2023-02-11T00:16:37.943Z,101928.56
2023-02-11T00:20:50.472Z,101933.00
2023-02-11T00:25:03.133Z,101942.78
2023-02-11T00:29:15.616Z,101945.59
2023-02-11T00:33:27.847Z,101939.91
2023-02-11T00:37:40.134Z,101943.66
2023-02-11T00:41:52.530Z,101939.53
2023-02-11T00:46:05.163Z,101930.91
2023-02-11T00:50:18.555Z,101942.06
2023-02-11T00:54:30.978Z,101944.56
2023-02-11T00:58:43.270Z,101937.41
2023-02-11T01:02:57.154Z,101941.16
2023-02-11T01:07:09.653Z,101944.16
2023-02-11T01:11:24.177Z,101935.28
2023-02-11T01:15:36.740Z,101944.22
2023-02-11T01:19:50.845Z,101938.44
2023-02-11T01:24:03.358Z,101936.38
2023-02-11T01:28:34.053Z,101938.59
2023-02-11T01:32:46.460Z,101939.41
2023-02-11T01:36:59.860Z,101937.63
2023-02-11T01:41:15.264Z,101914.34
2023-02-11T01:45:47.268Z,101921.88
2023-02-11T01:50:02.823Z,101908.50
2023-02-11T01:54:39.082Z,101916.72
2023-02-11T01:58:53.561Z,101907.34
2023-02-11T02:03:11.464Z,101899.25
2023-02-11T02:07:39.895Z,101899.78
2023-02-11T02:11:52.966Z,101888.56
2023-02-11T02:16:09.960Z,101903.66
2023-02-11T02:20:52.721Z,101900.53
2023-02-11T02:25:29.502Z,101894.19
2023-02-11T02:30:23.866Z,101907.78
2023-02-11T02:34:50.254Z,101896.47
2023-02-11T02:39:18.690Z,101909.50
2023-02-11T02:43:31.661Z,101905.03
2023-02-11T02:47:44.114Z,101906.31
2023-02-11T02:52:15.122Z,101917.16
2023-02-11T02:56:55.826Z,101907.06
2023-02-11T03:01:40.353Z,101920.59
2023-02-11T03:05:59.346Z,101899.75
2023-02-11T03:10:17.840Z,101908.31
2023-02-11T03:14:32.653Z,101917.00
2023-02-11T03:18:50.848Z,101907.00
2023-02-11T03:23:11.574Z,101909.91
2023-02-11T03:27:35.158Z,101897.09
2023-02-11T03:32:08.981Z,101898.31
2023-02-11T03:36:29.321Z,101900.03
2023-02-11T03:40:45.892Z,101901.94
2023-02-11T03:45:05.293Z,101903.53
2023-02-11T03:49:21.793Z,101911.13
2023-02-11T03:53:37.325Z,101910.72
2023-02-11T03:57:49.834Z,101904.00
2023-02-11T04:02:02.088Z,101901.63
2023-02-11T04:06:14.528Z,101907.50
2023-02-11T04:10:26.906Z,101902.44
2023-02-11T04:14:39.296Z,101900.41
2023-02-11T04:18:51.606Z,101897.13
2023-02-11T04:23:03.982Z,101901.81
2023-02-11T04:27:16.455Z,101894.91
2023-02-11T04:31:29.013Z,101896.81
2023-02-11T04:35:41.489Z,101893.69
2023-02-11T04:39:53.798Z,101897.31
2023-02-11T04:44:06.437Z,101901.81
2023-02-11T04:48:18.805Z,101900.59
2023-02-11T04:52:31.204Z,101900.31
2023-02-11T04:56:43.802Z,101897.09
2023-02-11T05:00:56.264Z,101895.53
2023-02-11T05:05:09.013Z,101894.72
2023-02-11T05:09:21.289Z,101890.00
2023-02-11T05:13:33.795Z,101901.78
2023-02-11T05:17:46.264Z,101901.63
2023-02-11T05:22:03.103Z,101916.69
2023-02-11T05:26:16.097Z,101921.91
2023-02-11T05:30:28.572Z,101921.81
2023-02-11T05:34:41.003Z,101931.44
2023-02-11T05:38:53.384Z,101932.75
2023-02-11T05:43:05.689Z,101937.06
2023-02-11T05:47:18.192Z,101933.91
2023-02-11T05:51:30.592Z,101931.50
2023-02-11T05:55:43.063Z,101944.13
2023-02-11T05:59:55.479Z,101938.00
2023-02-11T06:04:07.847Z,101931.94
2023-02-11T06:08:20.043Z,101949.66
2023-02-11T06:12:32.344Z,101944.94
2023-02-11T06:16:44.781Z,101935.34
2023-02-11T06:20:57.310Z,101948.97
2023-02-11T06:25:11.323Z,101947.63
2023-02-11T06:29:23.803Z,101939.22
2023-02-11T06:33:36.564Z,101943.16
2023-02-11T06:37:50.037Z,101948.06
2023-02-11T06:42:02.413Z,101941.84
2023-02-11T06:46:14.877Z,101941.97
2023-02-11T06:50:27.265Z,101953.66
2023-02-11T06:54:39.602Z,101945.16
2023-02-11T06:58:58.256Z,101950.28
2023-02-11T07:03:10.672Z,101951.25
2023-02-11T07:07:23.101Z,101957.03
2023-02-11T07:11:35.462Z,101963.44
2023-02-11T07:15:48.130Z,101957.09
2023-02-11T07:20:00.563Z,101955.84
2023-02-11T07:24:13.610Z,101942.25
2023-02-11T07:28:25.995Z,101940.81
2023-02-11T07:32:44.329Z,101944.16
2023-02-11T07:36:57.708Z,101939.69
2023-02-11T07:41:13.732Z,101935.72
2023-02-11T07:45:27.706Z,101942.44
2023-02-11T07:49:40.424Z,101936.38
2023-02-11T07:53:53.722Z,101943.66
2023-02-11T07:58:06.855Z,101942.63
2023-02-11T08:02:20.888Z,101935.00
2023-02-11T08:06:35.361Z,101928.34
2023-02-11T08:10:50.496Z,101946.19
2023-02-11T08:15:03.208Z,101941.09
2023-02-11T08:19:16.981Z,101938.00
2023-02-11T08:23:29.493Z,101938.88
2023-02-11T08:27:41.755Z,101933.56
2023-02-11T08:31:54.289Z,101937.63
2023-02-11T08:36:19.632Z,101943.75
2023-02-11T08:40:31.992Z,101940.50
2023-02-11T08:44:44.677Z,101952.06
2023-02-11T08:48:57.175Z,101956.84
2023-02-11T08:53:09.902Z,101945.38
2023-02-11T08:57:22.240Z,101945.06
2023-02-11T09:01:34.890Z,101950.25
2023-02-11T09:05:50.430Z,101951.19
2023-02-11T09:10:03.155Z,101952.78
2023-02-11T09:14:24.494Z,101950.94
2023-02-11T09:18:36.856Z,101960.81
2023-02-11T09:22:49.421Z,101959.19
2023-02-11T09:27:01.659Z,101959.47
2023-02-11T09:31:17.008Z,101960.50
2023-02-11T09:35:29.593Z,101961.56
2023-02-11T09:39:41.926Z,101968.69
2023-02-11T09:43:57.702Z,101967.66
2023-02-11T09:48:19.240Z,101968.09
2023-02-11T09:52:49.349Z,101965.00
2023-02-11T09:57:01.927Z,101950.84
2023-02-11T10:01:59.028Z,101952.25
2023-02-11T10:06:23.297Z,101950.88
2023-02-11T10:10:59.025Z,101951.16
2023-02-11T10:15:30.269Z,101956.31
2023-02-11T10:20:00.545Z,101940.59
2023-02-11T10:24:16.222Z,101935.53
2023-02-11T10:28:34.520Z,101933.78
2023-02-11T10:33:02.818Z,101927.56
2023-02-11T10:37:15.476Z,101921.47
2023-02-11T10:41:34.211Z,101913.06
2023-02-11T10:45:51.831Z,101908.59
2023-02-11T10:50:25.902Z,101898.16
2023-02-11T10:54:39.287Z,101893.13
2023-02-11T10:59:01.868Z,101887.84
2023-02-11T11:03:25.712Z,101881.06
2023-02-11T11:07:38.306Z,101870.78
2023-02-11T11:11:54.193Z,101877.38
2023-02-11T11:16:09.721Z,101860.72
2023-02-11T11:20:30.094Z,101851.88
2023-02-11T11:24:46.975Z,101850.69
2023-02-11T11:29:07.454Z,101851.69
2023-02-11T11:33:33.451Z,101844.31
2023-02-11T11:37:46.399Z,101841.81
2023-02-11T11:42:03.480Z,101839.31
2023-02-11T11:46:25.371Z,101826.13
2023-02-11T11:50:42.768Z,101834.75
2023-02-11T11:55:13.248Z,101819.91
2023-02-11T11:59:25.636Z,101811.75
2023-02-11T12:04:00.160Z,101810.78
2023-02-11T12:08:38.101Z,101811.47
2023-02-11T12:12:59.777Z,101801.88
2023-02-11T12:17:17.924Z,101800.00
2023-02-11T12:21:50.565Z,101793.88
2023-02-11T12:26:25.655Z,101793.25
2023-02-11T12:31:21.422Z,101793.56
2023-02-11T12:35:55.577Z,101778.13
2023-02-11T12:40:28.942Z,101787.09
2023-02-11T12:44:52.011Z,101768.38
2023-02-11T12:49:11.053Z,101771.97
2023-02-11T12:53:23.432Z,101762.72
2023-02-11T12:57:38.774Z,101759.31
2023-02-11T13:01:56.395Z,101763.84
2023-02-11T13:06:15.044Z,101760.03
2023-02-11T13:10:41.635Z,101753.47
2023-02-11T13:15:00.323Z,101752.38
2023-02-11T13:19:26.913Z,101748.78
2023-02-11T13:23:58.177Z,101752.91
2023-02-11T13:28:29.533Z,101752.03
2023-02-11T13:33:12.619Z,101750.75
2023-02-11T13:37:39.313Z,101756.59
2023-02-11T13:42:03.685Z,101751.31
2023-02-11T13:46:16.377Z,101753.97
2023-02-11T13:50:30.736Z,101753.94
2023-02-11T13:54:50.177Z,101764.56
2023-02-11T13:59:05.781Z,101760.59
2023-02-11T14:03:39.191Z,101758.13
2023-02-11T14:08:28.297Z,101755.31
2023-02-11T14:12:40.948Z,101749.97
2023-02-11T14:17:02.217Z,101756.06
2023-02-11T14:21:24.768Z,101752.66
2023-02-11T14:25:41.487Z,101743.44
2023-02-11T14:30:44.763Z,101746.38
2023-02-11T14:35:20.873Z,101742.56
2023-02-11T14:39:58.047Z,101742.50
2023-02-11T14:44:21.628Z,101743.06
2023-02-11T14:48:36.625Z,101741.31
2023-02-11T14:52:49.785Z,101747.25
2023-02-11T14:57:17.722Z,101744.44
2023-02-11T15:01:35.636Z,101754.25
2023-02-11T15:05:55.810Z,101760.19
2023-02-11T15:10:18.915Z,101756.47
2023-02-11T15:14:34.189Z,101756.47
2023-02-11T15:18:52.044Z,101759.25
2023-02-11T15:23:09.315Z,101758.34
2023-02-11T15:27:23.104Z,101756.97
2023-02-11T15:31:37.856Z,101756.53
2023-02-11T15:35:51.184Z,101764.88
2023-02-11T15:40:19.327Z,101767.50
2023-02-11T15:44:34.071Z,101757.25
2023-02-11T15:48:51.115Z,101765.47
2023-02-11T15:53:29.341Z,101769.72
2023-02-11T15:57:51.329Z,101771.59
2023-02-11T16:02:18.587Z,101767.72
2023-02-11T16:06:42.979Z,101768.34
2023-02-11T16:11:05.369Z,101768.88
2023-02-11T16:15:38.576Z,101770.13
2023-02-11T16:19:53.079Z,101767.34
2023-02-11T16:24:21.424Z,101779.19
2023-02-11T16:28:37.387Z,101774.38
2023-02-11T16:32:49.938Z,101766.72
2023-02-11T16:37:05.224Z,101771.09
2023-02-11T16:41:17.486Z,101772.75
2023-02-11T16:45:29.850Z,101767.63
2023-02-11T16:49:43.141Z,101773.97
2023-02-11T16:53:55.487Z,101772.63
2023-02-11T16:58:10.112Z,101780.59
2023-02-11T17:02:28.486Z,101777.00
2023-02-11T17:06:42.761Z,101781.03
2023-02-11T17:10:56.046Z,101779.56
2023-02-11T17:15:08.919Z,101778.09
2023-02-11T17:19:22.069Z,101778.00
2023-02-11T17:23:34.494Z,101772.25
2023-02-11T17:27:51.225Z,101781.66
2023-02-11T17:32:06.625Z,101780.50
2023-02-11T17:36:19.151Z,101783.31
2023-02-11T17:40:33.220Z,101791.44
2023-02-11T17:44:46.562Z,101784.00
2023-02-11T17:48:59.978Z,101798.81
2023-02-11T17:53:12.456Z,101810.28
2023-02-11T17:57:24.830Z,101803.50
2023-02-11T18:01:39.394Z,101806.44
2023-02-11T18:05:52.017Z,101803.06
2023-02-11T18:10:07.601Z,101810.75
2023-02-11T18:14:21.498Z,101808.38
2023-02-11T18:18:33.979Z,101805.47
2023-02-11T18:22:46.518Z,101803.84
2023-02-11T18:26:59.036Z,101797.66
2023-02-11T18:31:12.033Z,101800.44
2023-02-11T18:35:27.558Z,101800.31
2023-02-11T18:39:40.670Z,101800.38
2023-02-11T18:43:53.516Z,101797.44
2023-02-11T18:48:07.298Z,101797.09
2023-02-11T18:52:19.855Z,101795.38
2023-02-11T18:56:33.700Z,101804.50
2023-02-11T19:00:50.067Z,101792.59
2023-02-11T19:05:06.207Z,101786.13
2023-02-11T19:09:20.036Z,101796.59
2023-02-11T19:13:32.546Z,101793.19
2023-02-11T19:17:44.869Z,101796.72
2023-02-11T19:21:58.520Z,101796.75
2023-02-11T19:26:10.844Z,101800.31
2023-02-11T19:30:23.238Z,101800.00
2023-02-11T19:34:41.526Z,101796.00
2023-02-11T19:38:54.359Z,101791.66
2023-02-11T19:43:06.735Z,101797.22
2023-02-11T19:47:19.806Z,101806.75
2023-02-11T19:51:39.504Z,101796.94
2023-02-11T19:55:52.301Z,101793.53
2023-02-11T20:00:05.816Z,101800.91
2023-02-11T20:04:25.578Z,101787.09
2023-02-11T20:08:38.069Z,101789.94
2023-02-11T20:12:50.701Z,101790.56
2023-02-11T20:17:04.250Z,101787.31
2023-02-11T20:21:20.069Z,101797.19
2023-02-11T20:25:32.451Z,101789.38
2023-02-11T20:29:45.004Z,101789.53
2023-02-11T20:34:00.241Z,101789.88
2023-02-11T20:38:12.543Z,101794.41
2023-02-11T20:42:25.573Z,101790.97
2023-02-11T20:46:40.550Z,101788.06
2023-02-11T20:50:54.455Z,101785.38
2023-02-11T20:55:06.878Z,101779.44
2023-02-11T20:59:19.832Z,101774.38
2023-02-11T21:03:32.308Z,101782.91
2023-02-11T21:07:44.676Z,101777.81
2023-02-11T21:11:57.467Z,101776.88
2023-02-11T21:16:14.130Z,101764.91
2023-02-11T21:20:26.455Z,101767.78
2023-02-11T21:24:39.020Z,101770.47
2023-02-11T21:28:52.721Z,101770.72
2023-02-11T21:33:05.643Z,101759.31
2023-02-11T21:37:18.028Z,101768.41
2023-02-11T21:41:30.706Z,101759.53
2023-02-11T21:45:48.175Z,101764.09
2023-02-11T21:50:00.534Z,101765.22
2023-02-11T21:54:12.918Z,101765.44
2023-02-11T21:58:25.240Z,101756.75
2023-02-11T22:02:40.949Z,101756.75
2023-02-11T22:06:53.466Z,101751.38
2023-02-11T22:11:09.269Z,101755.16
2023-02-11T22:15:22.295Z,101744.19
2023-02-11T22:19:36.766Z,101749.03
2023-02-11T22:23:52.006Z,101749.88
2023-02-11T22:28:04.497Z,101738.59
2023-02-11T22:32:18.597Z,101756.88
2023-02-11T22:36:33.792Z,101752.28
2023-02-11T22:40:46.149Z,101756.22
2023-02-11T22:44:58.375Z,101765.09
2023-02-11T22:49:13.371Z,101754.28
2023-02-11T22:53:25.893Z,101758.84
2023-02-11T22:57:38.276Z,101752.97
2023-02-11T23:01:50.804Z,101750.84
2023-02-11T23:06:03.887Z,101754.78
2023-02-11T23:10:19.046Z,101750.28
2023-02-11T23:14:32.039Z,101749.13
2023-02-11T23:18:46.245Z,101742.84
2023-02-11T23:22:58.710Z,101734.16
2023-02-11T23:27:11.044Z,101729.91
2023-02-11T23:31:29.979Z,101728.28
2023-02-11T23:35:42.438Z,101721.19
2023-02-11T23:39:54.845Z,101719.16
2023-02-11T23:44:07.151Z,101717.41
2023-02-11T23:48:19.725Z,101716.38
2023-02-11T23:52:32.019Z,101721.63
2023-02-11T23:56:44.309Z,101727.16
